Terminal Aerodrome Forecast
Issued by NWS

Home | Current Version | Previous Version | Text Only | Print | Product List | Glossary On
Versions: 1 2 3 4 5 6 7 8 9 10 11 12
000
FTUS45 KPSR 201100 RRA
TAFIPL
TAF
KIPL 201144Z 2012/2112 VRB03KT P6SM SCT090
      TEMPO 2013/2017 BKN090
     FM201900 12005KT P6SM SCT090
     FM210300 27006KT P6SM SCT250=

USA.gov is the U.S. government's official web portal to all federal, state and local government web resources and services.